Terminal Aerodrome Forecast
Issued by NWS Bismarck, ND

Home | Current Version | Previous Version | Graphics & Text | Print | Product List | Glossary On
Versions: 1 2 3 4 5 6 7 8 9 10 11 12 13 14 15 16 17 18 19 20
000
FTUS43 KBIS 220705 AAA
TAFBIS
TAF AMD
KBIS 220705Z 2207/2306 28004KT 6SM BR SCT009 OVC015
      TEMPO 2207/2209 4SM BR BKN008 OVC011
     FM220900 28005KT 5SM BR OVC009
     FM221700 28009KT P6SM BKN015 OVC025
     FM222300 27007KT P6SM OVC012=

USA.gov is the U.S. government's official web portal to all federal, state and local government web resources and services.